Etusivu
METAR-TAF:

METAR-TAF

Lentoasemat :

Earlton, Ontario, Kanada

Leveyspiiri: 47-42N, Pituuspiiri: 079-51W, korkeus merenpinnasta: 243 m

Tämänhetkinen sää

Tämä raportti tehtiin 10 minuuttia sitten, kello 11.00 UTC
Tuuli 8 kn pohjoisesta
Lämpötila -17°C
Kosteus 77%
Ilmanpaine 1024 hPa
Näkyvyys: 14.5 km
Hajanaisia pilviä 17000 ft:n korkeudessa
Hajanaisia pilviä 19000 ft:n korkeudessa
Hajonneita pilviä 23000 ft:n korkeudessa

METAR: CYXR 261100Z AUTO 36008KT 9SM SCT170 SCT190 BKN230 M17/M20 A3025 RMK SLP265

Aika: 06:10 (11:10 UTC)

Sääennuste

Tämä raportti tehtiin 17 tuntia ja 32 minuuttia sitten, kello 17.38 UTC
Ennuste voimassa 25. päivästä klo 18 UTC - 26. päivään klo 01 UTC
Tuuli 8 kn luoteesta
Näkyvyys: 10 km
Muutamia pilviä 4000 ft:n korkeudessa

TAF: CYXR 251738Z 2518/2601 31008KT P6SM FEW040 RMK FCST BASED ON AUTO OBS. NXT FCST WILL BE ISSUED AT 261245Z

Säähavainnot ja -ennusteet yli 4000 lentoasemalta (METAR- ja TAF-raportit).

Käytössä olevat sääasemat on merkitty karttaan keltaisilla ja punaisilla pisteillä.

Aseta hiiri pisteen päälle nähdäksesi sääaseman nimen.

Klikkaa sitten nähdäksesi säähavainnot ja -ennusteet.

Kartan vaihtaminen: klikkaa mustalla rastilla varustettuja vihreitä pisteitä, niin voit zoomata sisään; viivalla varustettua vihreää pistettä, niin voit zoomata ulos tai vihreitä nuolia, niin pääset viereisille kartoille.


METAR-TAF: